ZKDAY RPMO-RPME

Flight info

Callsign ZKDAY
Flight time 1h 13m
Altitude 3500
Route VFR
Aircraft C172/L-SGO/C

Departure

Time 2026-04-25 20:25
Airport Labo Airport (RPMO)

Arrival

Time 2026-04-25 21:39
Airport Bancasi Airport (RPME)
Time Latitude Longitude Altitude Speed Heading
2026-04-25 20:07 8.18064 123.84431 58 ft 0 kts 142°
2026-04-25 20:18 8.18065 123.84431 58 ft 0 kts 142°
2026-04-25 20:20 8.18057 123.84432 58 ft 4 kts 204°
2026-04-25 20:20 8.18067 123.84381 60 ft 11 kts 302°
2026-04-25 20:20 8.18071 123.84349 61 ft 0 kts 247°
2026-04-25 20:22 8.17997 123.84242 58 ft 24 kts 214°
2026-04-25 20:22 8.17847 123.84142 57 ft 28 kts 214°
2026-04-25 20:23 8.17678 123.84032 57 ft 30 kts 213°
2026-04-25 20:23 8.17565 123.83955 62 ft 28 kts 216°
2026-04-25 20:23 8.17417 123.83859 63 ft 23 kts 208°
2026-04-25 20:23 8.17298 123.83774 65 ft 18 kts 216°
2026-04-25 20:24 8.17256 123.83758 64 ft 5 kts 43°
2026-04-25 20:24 8.17263 123.83763 67 ft 0 kts 31°
2026-04-25 20:24 8.17264 123.83764 67 ft 1 kts 31°
2026-04-25 20:24 8.17423 123.83866 64 ft 53 kts 33°
2026-04-25 20:25 8.17843 123.84138 118 ft 83 kts 33°
2026-04-25 20:25 8.18363 123.84476 299 ft 89 kts 32°
2026-04-25 20:25 8.18868 123.84792 580 ft 84 kts 31°
2026-04-25 20:25 8.19369 123.85112 779 ft 88 kts 33°
2026-04-25 20:26 8.19718 123.85599 1007 ft 86 kts 81°
2026-04-25 20:26 8.19499 123.86182 1113 ft 101 kts 143°
2026-04-25 20:26 8.18784 123.86155 1009 ft 119 kts 208°
2026-04-25 20:26 8.18068 123.85764 1058 ft 115 kts 200°
2026-04-25 20:27 8.17360 123.86002 997 ft 122 kts 126°
2026-04-25 20:27 8.17093 123.86808 991 ft 118 kts 103°
2026-04-25 20:27 8.16956 123.87608 1021 ft 113 kts 98°
2026-04-25 20:27 8.16862 123.88398 1022 ft 114 kts 95°
2026-04-25 20:28 8.16796 123.89186 1049 ft 112 kts 93°
2026-04-25 20:28 8.16786 123.89972 1070 ft 112 kts 87°
2026-04-25 20:28 8.16833 123.90760 1075 ft 113 kts 84°
2026-04-25 20:28 8.16894 123.91554 1085 ft 112 kts 85°
2026-04-25 20:29 8.16984 123.92347 1067 ft 116 kts 82°
2026-04-25 20:29 8.17081 123.93155 1091 ft 115 kts 82°
2026-04-25 20:29 8.17209 123.93948 1084 ft 116 kts 79°
2026-04-25 20:29 8.17412 123.94734 1096 ft 115 kts 72°
2026-04-25 20:30 8.17658 123.95496 1104 ft 115 kts 75°
2026-04-25 20:30 8.17721 123.96305 1086 ft 117 kts 92°
2026-04-25 20:30 8.17672 123.97121 1098 ft 116 kts 92°
2026-04-25 20:30 8.17614 123.97930 1109 ft 116 kts 95°
2026-04-25 20:31 8.17525 123.98741 1105 ft 116 kts 97°
2026-04-25 20:31 8.17417 123.99546 1132 ft 115 kts 96°
2026-04-25 20:31 8.17312 124.00351 1133 ft 116 kts 97°
2026-04-25 20:31 8.17208 124.01160 1116 ft 117 kts 91°
2026-04-25 20:32 8.17280 124.01997 1054 ft 121 kts 81°
2026-04-25 20:32 8.17420 124.02823 1043 ft 119 kts 79°
2026-04-25 20:32 8.17551 124.03640 1052 ft 116 kts 81°
2026-04-25 20:32 8.17664 124.04449 1040 ft 117 kts 81°
2026-04-25 20:33 8.17787 124.05251 1073 ft 114 kts 79°
2026-04-25 20:33 8.17930 124.06044 1072 ft 115 kts 78°
2026-04-25 20:33 8.18125 124.06830 1085 ft 115 kts 72°
2026-04-25 20:33 8.18290 124.07337 1099 ft 115 kts 71°
2026-04-25 20:34 8.18656 124.08358 1104 ft 116 kts 67°
2026-04-25 20:34 8.18996 124.09092 1120 ft 116 kts 62°
2026-04-25 20:34 8.19377 124.09813 1117 ft 116 kts 62°
2026-04-25 20:34 8.19732 124.10553 1113 ft 116 kts 65°
2026-04-25 20:35 8.20038 124.11306 1112 ft 117 kts 70°
2026-04-25 20:35 8.20305 124.12078 1119 ft 115 kts 71°
2026-04-25 20:35 8.20568 124.12839 1137 ft 115 kts 70°
2026-04-25 20:35 8.20842 124.13602 1131 ft 116 kts 70°
2026-04-25 20:36 8.21117 124.14362 1133 ft 115 kts 70°
2026-04-25 20:36 8.21379 124.15126 1126 ft 116 kts 70°
2026-04-25 20:36 8.21650 124.15891 1133 ft 115 kts 69°
2026-04-25 20:36 8.21949 124.16638 1140 ft 115 kts 67°
2026-04-25 20:37 8.22231 124.17400 1135 ft 116 kts 71°
2026-04-25 20:37 8.22469 124.18174 1140 ft 116 kts 73°
2026-04-25 20:37 8.22693 124.18955 1137 ft 116 kts 73°
2026-04-25 20:37 8.22906 124.19736 1146 ft 115 kts 75°
2026-04-25 20:38 8.23114 124.20519 1140 ft 116 kts 74°
2026-04-25 20:38 8.23334 124.21297 1152 ft 114 kts 72°
2026-04-25 20:38 8.23567 124.22066 1148 ft 115 kts 72°
2026-04-25 20:38 8.23800 124.22798 1298 ft 103 kts 70°
2026-04-25 20:39 8.24047 124.23445 1455 ft 95 kts 67°
2026-04-25 20:39 8.24290 124.24054 1579 ft 92 kts 68°
2026-04-25 20:39 8.24509 124.24646 1735 ft 89 kts 68°
2026-04-25 20:39 8.24665 124.25028 1824 ft 87 kts 65°
2026-04-25 20:40 8.25072 124.25769 1958 ft 91 kts 58°
2026-04-25 20:40 8.25419 124.26354 1987 ft 103 kts 59°
2026-04-25 20:40 8.25804 124.27003 2035 ft 109 kts 59°
2026-04-25 20:40 8.26204 124.27650 2107 ft 110 kts 56°
2026-04-25 20:41 8.26624 124.28310 2113 ft 115 kts 58°
2026-04-25 20:41 8.27056 124.29004 2157 ft 115 kts 57°
2026-04-25 20:41 8.27487 124.29690 2169 ft 116 kts 58°
2026-04-25 20:41 8.27904 124.30390 2185 ft 116 kts 60°
2026-04-25 20:42 8.28309 124.31097 2215 ft 116 kts 59°
2026-04-25 20:42 8.28717 124.31797 2253 ft 116 kts 59°
2026-04-25 20:42 8.29122 124.32505 2275 ft 116 kts 60°
2026-04-25 20:42 8.29496 124.33225 2301 ft 116 kts 63°
2026-04-25 20:43 8.29841 124.33962 2329 ft 116 kts 65°
2026-04-25 20:43 8.30151 124.34715 2339 ft 117 kts 69°
2026-04-25 20:43 8.30437 124.35492 2329 ft 119 kts 70°
2026-04-25 20:43 8.30707 124.36278 2354 ft 118 kts 71°
2026-04-25 20:44 8.30959 124.37063 2367 ft 118 kts 72°
2026-04-25 20:44 8.31239 124.37859 2303 ft 123 kts 69°
2026-04-25 20:44 8.31553 124.38647 2314 ft 119 kts 67°
2026-04-25 20:44 8.31882 124.39396 2362 ft 116 kts 64°
2026-04-25 20:45 8.32263 124.40132 2337 ft 119 kts 60°
2026-04-25 20:45 8.32684 124.40836 2400 ft 116 kts 57°
2026-04-25 20:45 8.33162 124.41493 2411 ft 117 kts 51°
2026-04-25 20:45 8.33644 124.42166 2387 ft 120 kts 61°
2026-04-25 20:46 8.33966 124.42954 2351 ft 122 kts 71°
2026-04-25 20:46 8.34251 124.43748 2382 ft 118 kts 66°
2026-04-25 20:46 8.34606 124.44496 2369 ft 119 kts 63°
2026-04-25 20:46 8.34966 124.45245 2374 ft 118 kts 65°
2026-04-25 20:47 8.35298 124.45988 2427 ft 115 kts 65°
2026-04-25 20:47 8.35652 124.46711 2454 ft 116 kts 63°
2026-04-25 20:47 8.36014 124.47444 2420 ft 117 kts 64°
2026-04-25 20:47 8.36376 124.48168 2459 ft 115 kts 62°
2026-04-25 20:48 8.36744 124.48896 2464 ft 116 kts 64°
2026-04-25 20:48 8.37097 124.49630 2464 ft 117 kts 64°
2026-04-25 20:48 8.37457 124.50385 2455 ft 121 kts 65°
2026-04-25 20:48 8.37812 124.51152 2519 ft 120 kts 64°
2026-04-25 20:49 8.38177 124.51914 2580 ft 123 kts 63°
2026-04-25 20:49 8.38588 124.52661 2707 ft 119 kts 60°
2026-04-25 20:49 8.39011 124.53387 2781 ft 121 kts 60°
2026-04-25 20:49 8.39439 124.54117 2800 ft 120 kts 60°
2026-04-25 20:50 8.39863 124.54831 2815 ft 118 kts 59°
2026-04-25 20:50 8.40293 124.55554 2760 ft 120 kts 60°
2026-04-25 20:50 8.40346 124.55643 2763 ft 120 kts 59°
2026-04-25 20:50 8.40645 124.56134 2769 ft 118 kts 60°
2026-04-25 20:51 8.41052 124.56861 2715 ft 120 kts 62°
2026-04-25 20:51 8.41435 124.57607 2670 ft 120 kts 63°
2026-04-25 20:51 8.41792 124.58360 2663 ft 118 kts 65°
2026-04-25 20:51 8.42135 124.59119 2634 ft 119 kts 66°
2026-04-25 20:52 8.42485 124.59876 2614 ft 119 kts 64°
2026-04-25 20:52 8.42742 124.60365 2569 ft 121 kts 61°
2026-04-25 20:52 8.43370 124.61382 2314 ft 131 kts 58°
2026-04-25 20:52 8.43836 124.62183 2152 ft 133 kts 60°
2026-04-25 20:53 8.44312 124.62976 2061 ft 129 kts 59°
2026-04-25 20:53 8.44757 124.63763 1981 ft 129 kts 62°
2026-04-25 20:53 8.45180 124.64537 1956 ft 126 kts 60°
2026-04-25 20:53 8.45612 124.65316 1877 ft 127 kts 63°
2026-04-25 20:54 8.45969 124.66133 1750 ft 130 kts 71°
2026-04-25 20:54 8.46240 124.66995 1647 ft 129 kts 75°
2026-04-25 20:54 8.46435 124.67852 1647 ft 122 kts 74°
2026-04-25 20:54 8.46754 124.68654 1581 ft 126 kts 65°
2026-04-25 20:55 8.47142 124.69458 1506 ft 128 kts 64°
2026-04-25 20:55 8.47525 124.70251 1497 ft 123 kts 64°
2026-04-25 20:55 8.47910 124.71012 1473 ft 120 kts 63°
2026-04-25 20:55 8.48309 124.71747 1489 ft 118 kts 60°
2026-04-25 20:56 8.48734 124.72459 1483 ft 118 kts 60°
2026-04-25 20:56 8.49150 124.73168 1510 ft 116 kts 58°
2026-04-25 20:56 8.49690 124.73771 1503 ft 117 kts 41°
2026-04-25 20:56 8.50340 124.74266 1523 ft 117 kts 37°
2026-04-25 20:57 8.51025 124.74701 1535 ft 117 kts 28°
2026-04-25 20:57 8.51809 124.74941 1529 ft 119 kts
2026-04-25 20:57 8.52649 124.75032 1528 ft 123 kts
2026-04-25 20:57 8.53509 124.75091 1562 ft 124 kts
2026-04-25 20:58 8.54389 124.75084 1444 ft 131 kts
2026-04-25 20:58 8.55295 124.75111 1368 ft 129 kts
2026-04-25 20:58 8.56158 124.75259 1365 ft 125 kts 13°
2026-04-25 20:58 8.57033 124.75441 1224 ft 130 kts 13°
2026-04-25 20:59 8.57897 124.75597 1253 ft 123 kts 10°
2026-04-25 20:59 8.58724 124.75672 1327 ft 118 kts
2026-04-25 20:59 8.59548 124.75721 1338 ft 118 kts
2026-04-25 20:59 8.60370 124.75779 1357 ft 118 kts
2026-04-25 21:00 8.61189 124.75838 1376 ft 118 kts
2026-04-25 21:00 8.61468 124.75852 1376 ft 119 kts
2026-04-25 21:00 8.63648 124.75718 1459 ft 118 kts 360°
2026-04-25 21:01 8.64466 124.75700 1527 ft 117 kts
2026-04-25 21:01 8.65272 124.75706 1661 ft 115 kts
2026-04-25 21:01 8.66071 124.75754 1749 ft 116 kts
2026-04-25 21:01 8.66874 124.75870 1817 ft 117 kts 13°
2026-04-25 21:02 8.67679 124.76053 1834 ft 120 kts 16°
2026-04-25 21:02 8.68493 124.76277 1797 ft 122 kts 19°
2026-04-25 21:02 8.69308 124.76523 1772 ft 123 kts 18°
2026-04-25 21:02 8.70140 124.76724 1794 ft 122 kts 14°
2026-04-25 21:03 8.70694 124.76833 1896 ft 118 kts 12°
2026-04-25 21:03 8.71780 124.76937 2016 ft 120 kts
2026-04-25 21:03 8.72353 124.76960 2022 ft 124 kts
2026-04-25 21:03 8.73236 124.77041 1927 ft 131 kts
2026-04-25 21:04 8.74152 124.77149 1821 ft 132 kts 11°
2026-04-25 21:04 8.75054 124.77309 1728 ft 132 kts 14°
2026-04-25 21:04 8.75953 124.77520 1615 ft 132 kts 16°
2026-04-25 21:04 8.76849 124.77744 1482 ft 134 kts 16°
2026-04-25 21:05 8.77761 124.77926 1447 ft 130 kts
2026-04-25 21:05 8.78645 124.77987 1480 ft 126 kts
2026-04-25 21:05 8.79531 124.77973 1461 ft 127 kts
2026-04-25 21:05 8.80413 124.77990 1400 ft 126 kts
2026-04-25 21:06 8.81282 124.78027 1385 ft 124 kts
2026-04-25 21:06 8.82141 124.78076 1361 ft 122 kts
2026-04-25 21:06 8.82980 124.78122 1370 ft 121 kts
2026-04-25 21:06 8.83535 124.78137 1374 ft 120 kts
2026-04-25 21:07 8.84649 124.78181 1383 ft 119 kts
2026-04-25 21:07 8.85473 124.78214 1435 ft 116 kts
2026-04-25 21:07 8.86266 124.78229 1514 ft 113 kts
2026-04-25 21:07 8.87075 124.78214 1486 ft 119 kts
2026-04-25 21:08 8.87913 124.78172 1473 ft 121 kts 360°
2026-04-25 21:08 8.88749 124.78139 1515 ft 118 kts
2026-04-25 21:08 8.89560 124.78117 1561 ft 117 kts
2026-04-25 21:08 8.90379 124.78083 1554 ft 118 kts
2026-04-25 21:09 8.91996 124.78310 1579 ft 119 kts 12°
2026-04-25 21:09 8.92813 124.78443 1608 ft 119 kts 13°
2026-04-25 21:09 8.93620 124.78588 1646 ft 119 kts 13°
2026-04-25 21:10 8.94446 124.78750 1619 ft 121 kts 13°
2026-04-25 21:10 8.95279 124.78914 1588 ft 123 kts 13°
2026-04-25 21:10 8.96129 124.79068 1612 ft 124 kts 13°
2026-04-25 21:10 8.96982 124.79230 1532 ft 124 kts 19°
2026-04-25 21:11 8.97624 124.79759 1537 ft 118 kts 60°
2026-04-25 21:11 8.97954 124.80500 1603 ft 112 kts 67°
2026-04-25 21:11 8.98241 124.81237 1594 ft 114 kts 69°
2026-04-25 21:11 8.98563 124.81981 1522 ft 118 kts 66°
2026-04-25 21:12 8.98912 124.82749 1428 ft 122 kts 66°
2026-04-25 21:12 8.99230 124.83542 1394 ft 121 kts 72°
2026-04-25 21:12 8.99439 124.84348 1407 ft 119 kts 78°
2026-04-25 21:12 8.99540 124.84896 1353 ft 120 kts 79°
2026-04-25 21:13 8.99695 124.86011 1326 ft 118 kts 82°
2026-04-25 21:13 8.99809 124.86827 1340 ft 117 kts 81°
2026-04-25 21:13 8.99858 124.87651 1294 ft 120 kts 92°
2026-04-25 21:13 8.99687 124.88500 1214 ft 124 kts 108°
2026-04-25 21:14 8.99269 124.89257 1204 ft 123 kts 122°
2026-04-25 21:14 8.98784 124.89968 1177 ft 120 kts 123°
2026-04-25 21:14 8.98275 124.90623 1254 ft 116 kts 127°
2026-04-25 21:14 8.97803 124.91266 1328 ft 113 kts 122°
2026-04-25 21:15 8.97384 124.91940 1361 ft 113 kts 118°
2026-04-25 21:15 8.96972 124.92614 1399 ft 112 kts 121°
2026-04-25 21:15 8.96556 124.93290 1394 ft 114 kts 118°
2026-04-25 21:15 8.96134 124.93962 1436 ft 112 kts 123°
2026-04-25 21:16 8.95677 124.94613 1427 ft 115 kts 123°
2026-04-25 21:16 8.95232 124.95276 1459 ft 113 kts 120°
2026-04-25 21:16 8.94800 124.95940 1471 ft 113 kts 123°
2026-04-25 21:16 8.94318 124.96575 1452 ft 115 kts 126°
2026-04-25 21:17 8.93812 124.97193 1468 ft 114 kts 128°
2026-04-25 21:17 8.93298 124.97808 1469 ft 114 kts 128°
2026-04-25 21:17 8.92782 124.98418 1484 ft 114 kts 129°
2026-04-25 21:17 8.92246 124.99014 1455 ft 116 kts 131°
2026-04-25 21:18 8.91672 124.99593 1436 ft 117 kts 134°
2026-04-25 21:18 8.91089 125.00146 1475 ft 114 kts 136°
2026-04-25 21:18 8.90489 125.00670 1493 ft 114 kts 137°
2026-04-25 21:18 8.89893 125.01194 1519 ft 114 kts 136°
2026-04-25 21:19 8.89307 125.01733 1521 ft 114 kts 134°
2026-04-25 21:19 8.88723 125.02280 1519 ft 115 kts 135°
2026-04-25 21:19 8.88131 125.02820 1519 ft 115 kts 136°
2026-04-25 21:19 8.87529 125.03348 1524 ft 115 kts 137°
2026-04-25 21:20 8.86932 125.03882 1529 ft 114 kts 135°
2026-04-25 21:20 8.86547 125.04241 1541 ft 114 kts 135°
2026-04-25 21:20 8.85743 125.04950 1534 ft 115 kts 137°
2026-04-25 21:20 8.85142 125.05475 1545 ft 113 kts 135°
2026-04-25 21:21 8.84583 125.06050 1502 ft 116 kts 129°
2026-04-25 21:21 8.84156 125.06717 1538 ft 111 kts 112°
2026-04-25 21:21 8.83890 125.07442 1541 ft 111 kts 107°
2026-04-25 21:21 8.83669 125.08202 1507 ft 113 kts 99°
2026-04-25 21:22 8.83671 125.08991 1489 ft 113 kts 82°
2026-04-25 21:22 8.83873 125.09753 1474 ft 112 kts 70°
2026-04-25 21:22 8.84154 125.10491 1470 ft 113 kts 69°
2026-04-25 21:22 8.84439 125.11227 1462 ft 112 kts 69°
2026-04-25 21:23 8.84697 125.11972 1452 ft 112 kts 73°
2026-04-25 21:23 8.84921 125.12722 1458 ft 111 kts 75°
2026-04-25 21:23 8.85141 125.13477 1435 ft 112 kts 74°
2026-04-25 21:23 8.85360 125.14232 1436 ft 111 kts 72°
2026-04-25 21:24 8.85684 125.14940 1436 ft 111 kts 61°
2026-04-25 21:24 8.86123 125.15588 1409 ft 113 kts 53°
2026-04-25 21:24 8.86625 125.16203 1401 ft 113 kts 51°
2026-04-25 21:24 8.87161 125.16787 1407 ft 113 kts 47°
2026-04-25 21:25 8.87742 125.17331 1418 ft 116 kts 44°
2026-04-25 21:25 8.88431 125.17753 1401 ft 122 kts 19°
2026-04-25 21:25 8.89280 125.17829 1365 ft 123 kts
2026-04-25 21:25 8.90128 125.17870 1336 ft 121 kts
2026-04-25 21:26 8.90972 125.17922 1255 ft 123 kts
2026-04-25 21:26 8.91835 125.18006 1137 ft 126 kts
2026-04-25 21:26 8.92720 125.18090 1005 ft 128 kts
2026-04-25 21:26 8.93597 125.18156 957 ft 124 kts
2026-04-25 21:27 8.94447 125.18195 927 ft 122 kts
2026-04-25 21:27 8.95282 125.18218 930 ft 118 kts
2026-04-25 21:27 8.96096 125.18196 947 ft 116 kts 358°
2026-04-25 21:27 8.96895 125.18117 954 ft 115 kts 358°
2026-04-25 21:28 8.97697 125.18080 944 ft 115 kts
2026-04-25 21:28 8.98494 125.18120 985 ft 114 kts
2026-04-25 21:28 8.99199 125.18403 1009 ft 113 kts 45°
2026-04-25 21:28 8.99524 125.19106 1086 ft 107 kts 77°
2026-04-25 21:29 8.99704 125.19833 1152 ft 107 kts 76°
2026-04-25 21:29 8.99902 125.20551 1263 ft 105 kts 73°
2026-04-25 21:29 9.00119 125.21250 1337 ft 105 kts 75°
2026-04-25 21:29 9.00289 125.21996 1308 ft 112 kts 81°
2026-04-25 21:30 9.00309 125.22784 1275 ft 114 kts 93°
2026-04-25 21:30 9.00181 125.23591 1227 ft 119 kts 99°
2026-04-25 21:30 9.00030 125.24423 1141 ft 120 kts 100°
2026-04-25 21:30 8.99917 125.24963 1141 ft 117 kts 101°
2026-04-25 21:31 8.99705 125.26023 1161 ft 113 kts 101°
2026-04-25 21:31 8.99561 125.26804 1124 ft 115 kts 94°
2026-04-25 21:31 8.99489 125.27600 1118 ft 113 kts 96°
2026-04-25 21:31 8.99345 125.28377 1114 ft 112 kts 101°
2026-04-25 21:32 8.99175 125.29139 1130 ft 110 kts 103°
2026-04-25 21:32 8.98980 125.29889 1172 ft 111 kts 105°
2026-04-25 21:32 8.98777 125.30649 1193 ft 111 kts 101°
2026-04-25 21:32 8.98642 125.31415 1185 ft 111 kts 98°
2026-04-25 21:33 8.98513 125.32180 1182 ft 112 kts 100°
2026-04-25 21:33 8.98397 125.32962 1181 ft 113 kts 97°
2026-04-25 21:33 8.98263 125.33775 1034 ft 122 kts 99°
2026-04-25 21:33 8.98138 125.34569 1195 ft 110 kts 97°
2026-04-25 21:34 8.98054 125.35343 1216 ft 111 kts 95°
2026-04-25 21:34 8.97989 125.36120 1218 ft 112 kts 94°
2026-04-25 21:34 8.97919 125.36904 1225 ft 112 kts 95°
2026-04-25 21:34 8.97839 125.37693 1191 ft 113 kts 96°
2026-04-25 21:35 8.97730 125.38476 1214 ft 110 kts 96°
2026-04-25 21:35 8.97600 125.39220 1265 ft 108 kts 101°
2026-04-25 21:35 8.97486 125.39957 1216 ft 104 kts 94°
2026-04-25 21:35 8.97455 125.40674 1205 ft 98 kts 90°
2026-04-25 21:36 8.97416 125.41357 1273 ft 99 kts 93°
2026-04-25 21:36 8.97355 125.42061 1234 ft 103 kts 95°
2026-04-25 21:36 8.97284 125.42796 1190 ft 107 kts 96°
2026-04-25 21:36 8.97136 125.43524 1071 ft 100 kts 106°
2026-04-25 21:37 8.96913 125.44122 932 ft 84 kts 111°
2026-04-25 21:37 8.96839 125.44294 883 ft 79 kts 112°
2026-04-25 21:37 8.96480 125.45131 655 ft 78 kts 112°
2026-04-25 21:37 8.96258 125.45625 559 ft 78 kts 113°
2026-04-25 21:38 8.96010 125.46136 441 ft 83 kts 115°
2026-04-25 21:38 8.95761 125.46653 290 ft 78 kts 115°
2026-04-25 21:38 8.95526 125.47120 126 ft 72 kts 115°
2026-04-25 21:38 8.95322 125.47533 45 ft 58 kts 115°
2026-04-25 21:39 8.95166 125.47854 38 ft 46 kts 115°
2026-04-25 21:39 8.95044 125.48071 38 ft 19 kts 141°
2026-04-25 21:39 8.94957 125.48094 39 ft 7 kts 266°
2026-04-25 21:39 8.94969 125.48062 39 ft 1 kts 299°
2026-04-25 21:40 8.94970 125.48061 39 ft 0 kts 300°